Latest Weather Observations for Holmes Reef

IDQ60801

Issued at 12:02 am EST Tuesday 23 December 2014 (issued every 30 minutes, with the page automatically refreshed every 10 minutes)

About weather observations | Map of weather stations | Latest weather observations for QLD | Other Formats
Station Details ID: 200732 Name: HOLMES REEF Lat: -16.47 Lon: 147.87 Height: 1.9 m
Data from the previous 72 hours. | See also: Recent months at Holmes Reef
Date/Time
EST
Temp
°C
App
Temp
°C
Dew
Point
Rel
Hum
%
Delta-T
°C
Wind Press
QNH
hPa
Press
MSL
hPa
Rain
since 9 am
mm
Dir
 
Spd
km/h
Gust
km/h
Spd
kts
Gust
kts
23/12:00am 27.8 - - - - E 37 46 20 25 1010.5 - -
 
Date/Time
EST
Temp
°C
App
Temp
°C
Dew
Point
Rel
Hum
%
Delta-T
°C
Wind Press
QNH
hPa
Press
MSL
hPa
Rain
since 9 am
mm
Dir
 
Spd
km/h
Gust
km/h
Spd
kts
Gust
kts
22/11:30pm 27.6 - - - - ESE 35 41 19 22 1011.0 - -
22/11:15pm 27.8 - - - - E 35 - 19 - - 1010.8 -
22/11:00pm 27.8 - - - - E 37 43 20 23 1011.3 - -
22/10:30pm 27.8 - - - - ESE 33 37 18 20 1011.6 - -
22/10:15pm 27.7 - - - - ESE 33 - 18 - - 1011.2 -
22/10:00pm 27.7 - - - - E 35 39 19 21 1011.5 - -
22/09:30pm 27.8 - - - - ESE 35 43 19 23 1011.5 - -
22/09:15pm 27.8 - - - - ESE 37 - 20 - - 1011.2 -
22/09:00pm 27.8 - - - - ESE 35 41 19 22 1011.5 - -
22/08:30pm 27.8 - - - - ESE 35 39 19 21 1011.4 - -
22/08:15pm 27.9 - - - - ESE 35 - 19 - - 1011.1 -
22/08:00pm 27.8 - - - - ESE 33 39 18 21 1011.3 - -
22/07:30pm 28.0 - - - - ESE 35 44 19 24 1011.0 - -
22/07:15pm 27.9 - - - - ESE 37 - 20 - - 1010.6 -
22/07:00pm 27.9 - - - - ESE 37 46 20 25 1011.0 - -
22/06:30pm 27.9 - - - - ESE 41 46 22 25 1010.6 - -
22/06:15pm 27.9 - - - - ESE 39 - 21 - - 1010.2 -
22/06:00pm 27.9 - - - - ESE 39 43 21 23 1010.2 - -
22/05:30pm 27.7 - - - - ESE 39 46 21 25 1009.9 - -
22/05:15pm 27.7 - - - - ESE 32 - 17 - - 1009.4 -
22/05:00pm 27.9 - - - - ESE 33 44 18 24 1009.6 - -
22/04:30pm 28.0 - - - - ESE 32 35 17 19 1009.4 - -
22/04:15pm 28.0 - - - - ESE 32 - 17 - - 1009.1 -
22/04:00pm 28.1 - - - - ESE 32 35 17 19 1009.5 - -
22/03:30pm 28.2 - - - - SE 35 39 19 21 1009.4 - -
22/03:15pm 27.9 - - - - SE 33 - 18 - - 1009.2 -
22/03:00pm 28.0 - - - - SE 33 39 18 21 1009.7 - -
22/02:30pm 28.0 - - - - ESE 32 35 17 19 1010.1 - -
22/02:15pm 28.0 - - - - ESE 32 - 17 - - 1010.0 -
22/02:00pm 27.9 - - - - ESE 33 37 18 20 1010.4 - -
22/01:30pm 28.1 - - - - ESE 35 39 19 21 1010.8 - -
22/01:15pm 28.1 - - - - ESE 33 - 18 - - 1010.5 -
22/01:00pm 28.1 - - - - ESE 33 39 18 21 1010.8 - -
22/12:30pm 28.1 - - - - ESE 35 41 19 22 1011.1 - -
22/12:15pm 28.2 - - - - ESE 35 - 19 - - 1011.0 -
22/12:00pm 28.0 - - - - ESE 37 43 20 23 1011.3 - -
22/11:30am 28.0 - - - - ESE 35 39 19 21 1011.6 - -
22/11:15am 28.0 - - - - ESE 35 - 19 - - 1011.3 -
22/11:00am 27.8 - - - - ESE 37 43 20 23 1011.6 - -
22/10:30am 27.7 - - - - ESE 37 43 20 23 1011.6 - -
22/10:15am 27.9 - - - - ESE 39 - 21 - - 1011.2 -
22/10:00am 28.1 - - - - ESE 39 44 21 24 1011.4 - -
22/09:30am 28.3 - - - - ESE 33 39 18 21 1011.5 - -
22/09:15am 28.1 - - - - E 33 - 18 - - 1011.1 -
22/09:00am 28.4 - - - - ESE 33 39 18 21 1011.2 - -
22/08:30am 28.2 - - - - ESE 35 39 19 21 1011.0 - -
22/08:15am 28.1 - - - - ESE 35 - 19 - - 1010.7 -
22/08:00am 28.3 - - - - ESE 33 39 18 21 1011.0 - -
22/07:30am 28.2 - - - - ESE 35 41 19 22 1010.9 - -
22/07:15am 28.2 - - - - ESE 33 - 18 - - 1010.4 -
22/07:00am 28.2 - - - - ESE 32 37 17 20 1010.8 - -
22/06:30am 28.2 - - - - ESE 35 39 19 21 1010.5 - -
22/06:15am 28.1 - - - - ESE 35 - 19 - - 1009.9 -
22/06:00am 28.1 - - - - ESE 35 39 19 21 1010.0 - -
22/05:30am 28.0 - - - - E 37 41 20 22 1009.6 - -
22/05:15am 28.0 - - - - ESE 35 - 19 - - 1009.2 -
22/05:00am 27.8 - - - - E 35 41 19 22 1009.3 - -
22/04:30am 28.0 - - - - E 33 39 18 21 1009.1 - -
22/04:15am 27.8 - - - - E 33 - 18 - - 1008.8 -
22/04:00am 27.8 - - - - E 33 37 18 20 1009.1 - -
22/03:30am 28.0 - - - - E 33 39 18 21 1009.2 - -
22/03:15am 28.0 - - - - E 33 - 18 - - 1008.9 -
22/03:00am 28.0 - - - - E 35 39 19 21 1009.2 - -
22/02:30am 27.9 - - - - E 35 41 19 22 1009.3 - -
22/02:15am 28.1 - - - - E 32 - 17 - - 1009.1 -
22/02:00am 27.9 - - - - E 33 37 18 20 1009.7 - -
22/01:30am 28.0 - - - - E 32 35 17 19 1010.2 - -
22/01:15am 28.0 - - - - E 35 - 19 - - 1010.1 -
22/01:00am 27.9 - - - - E 35 39 19 21 1010.5 - -
22/12:30am 28.2 - - - - E 33 37 18 20 1010.8 - -
22/12:15am 28.1 - - - - ESE 35 - 19 - - 1010.5 -
22/12:00am 28.3 - - - - E 35 39 19 21 1010.9 - -
 
Date/Time
EST
Temp
°C
App
Temp
°C
Dew
Point
Rel
Hum
%
Delta-T
°C
Wind Press
QNH
hPa
Press
MSL
hPa
Rain
since 9 am
mm
Dir
 
Spd
km/h
Gust
km/h
Spd
kts
Gust
kts
21/11:30pm 28.2 - - - - E 33 39 18 21 1011.3 - -
21/11:15pm 28.3 - - - - E 32 - 17 - - 1011.1 -
21/11:00pm 28.3 - - - - E 33 39 18 21 1011.4 - -
21/10:30pm 28.3 - - - - E 33 43 18 23 1011.4 - -
21/10:15pm 28.2 - - - - ESE 33 - 18 - - 1011.2 -
21/10:00pm 28.4 - - - - ESE 32 35 17 19 1011.5 - -
21/09:30pm 28.2 - - - - ESE 30 35 16 19 1011.3 - -
21/09:15pm 28.3 - - - - ESE 28 - 15 - - 1010.8 -
21/09:00pm 28.4 - - - - E 30 35 16 19 1011.1 - -
21/08:30pm 28.3 - - - - ESE 30 33 16 18 1010.8 - -
21/08:15pm 28.3 - - - - ESE 30 - 16 - - 1010.5 -
21/08:00pm 28.3 - - - - ESE 28 32 15 17 1010.8 - -
21/07:30pm 28.4 - - - - ESE 26 30 14 16 1010.6 - -
21/07:15pm 28.4 - - - - ESE 26 - 14 - - 1010.2 -
21/07:00pm 28.5 - - - - ESE 26 30 14 16 1010.5 - -
21/06:30pm 28.2 - - - - ESE 28 30 15 16 1010.2 - -
21/06:15pm 28.3 - - - - SE 24 - 13 - - 1009.9 -
21/06:00pm 28.2 - - - - ESE 22 26 12 14 1010.2 - -
21/05:30pm 28.3 - - - - SE 22 26 12 14 1010.1 - -
21/05:15pm 28.3 - - - - ESE 22 - 12 - - 1009.7 -
21/05:00pm 28.4 - - - - ESE 19 22 10 12 1009.9 - -
21/04:30pm 28.4 - - - - ESE 20 24 11 13 1009.8 - -
21/04:15pm 28.2 - - - - ESE 19 - 10 - - 1009.6 -
21/04:00pm 28.3 - - - - SE 20 24 11 13 1009.9 - -
21/03:30pm 28.2 - - - - ESE 19 22 10 12 1010.0 - -
21/03:15pm 28.6 - - - - ESE 22 - 12 - - 1009.8 -
21/03:00pm 28.3 - - - - ESE 22 26 12 14 1010.1 - -
21/02:30pm 28.3 - - - - ESE 20 24 11 13 1010.4 - -
21/02:15pm 28.3 - - - - ESE 19 - 10 - - 1010.2 -
21/02:00pm 28.4 - - - - ESE 20 24 11 13 1010.6 - -
21/01:30pm 28.5 - - - - E 22 24 12 13 1010.8 - -
21/01:15pm 28.4 - - - - ESE 22 - 12 - - 1010.7 -
21/01:00pm 28.4 - - - - E 22 26 12 14 1011.1 - -
21/12:30pm 28.3 - - - - E 24 26 13 14 1011.4 - -
21/12:15pm 28.2 - - - - E 22 - 12 - - 1011.3 -
21/12:00pm 28.3 - - - - E 20 26 11 14 1011.8 - -
21/11:30am 28.3 - - - - E 24 28 13 15 1012.0 - -
21/11:15am 28.4 - - - - E 24 - 13 - - 1011.7 -
21/11:00am 28.4 - - - - E 24 28 13 15 1012.0 - -
21/10:30am 28.4 - - - - ESE 24 28 13 15 1012.1 - -
21/10:15am 28.5 - - - - ESE 22 - 12 - - 1011.7 -
21/10:00am 28.5 - - - - ESE 24 26 13 14 1012.1 - -
21/09:30am 28.5 - - - - E 24 30 13 16 1012.1 - -
21/09:15am 28.4 - - - - E 24 - 13 - - 1011.6 -
21/09:00am 28.5 - - - - E 24 28 13 15 1011.8 - -
21/08:30am 28.5 - - - - ESE 26 28 14 15 1012.0 - -
21/08:15am 28.4 - - - - ESE 24 - 13 - - 1011.5 -
21/08:00am 28.6 - - - - E 24 28 13 15 1011.7 - -
21/07:30am 28.5 - - - - E 26 30 14 16 1011.4 - -
21/07:15am 28.4 - - - - E 24 - 13 - - 1011.0 -
21/07:00am 28.5 - - - - E 24 30 13 16 1011.2 - -
21/06:30am 28.4 - - - - E 26 30 14 16 1010.8 - -
21/06:15am 28.3 - - - - E 26 - 14 - - 1010.4 -
21/06:00am 28.3 - - - - E 26 30 14 16 1010.7 - -
21/05:30am 28.1 - - - - ESE 26 30 14 16 1010.1 - -
21/05:15am 28.1 - - - - ESE 26 - 14 - - 1009.5 -
21/05:00am 28.1 - - - - E 24 28 13 15 1009.8 - -
21/04:30am 28.0 - - - - E 19 22 10 12 1009.7 - -
21/04:15am 28.1 - - - - E 20 - 11 - - 1009.2 -
21/04:00am 28.0 - - - - E 20 24 11 13 1009.4 - -
21/03:30am 28.0 - - - - E 26 33 14 18 1009.4 - -
21/03:15am 28.1 - - - - E 26 - 14 - - 1009.2 -
21/03:00am 28.0 - - - - E 26 30 14 16 1009.5 - -
21/02:30am 28.0 - - - - E 28 30 15 16 1009.7 - -
21/02:15am 28.0 - - - - ESE 24 - 13 - - 1009.4 -
21/02:00am 28.0 - - - - E 20 26 11 14 1009.7 - -
21/01:30am 28.0 - - - - E 22 26 12 14 1010.0 - -
21/01:15am 28.0 - - - - E 22 - 12 - - 1009.8 -
21/01:00am 28.1 - - - - E 26 32 14 17 1010.2 - -
21/12:30am 28.1 - - - - E 28 30 15 16 1010.4 - -
21/12:15am 28.2 - - - - ENE 30 - 16 - - 1010.1 -
21/12:00am 28.3 - - - - E 28 35 15 19 1010.5 - -
 
Date/Time
EST
Temp
°C
App
Temp
°C
Dew
Point
Rel
Hum
%
Delta-T
°C
Wind Press
QNH
hPa
Press
MSL
hPa
Rain
since 9 am
mm
Dir
 
Spd
km/h
Gust
km/h
Spd
kts
Gust
kts
20/11:30pm 28.1 - - - - E 26 32 14 17 1010.8 - -
20/11:15pm 28.1 - - - - E 28 - 15 - - 1010.6 -
20/11:00pm 28.1 - - - - E 28 32 15 17 1011.1 - -
20/10:30pm 28.1 - - - - E 26 30 14 16 1011.4 - -
20/10:15pm 28.0 - - - - E 24 - 13 - - 1011.1 -
20/10:00pm 28.2 - - - - E 22 26 12 14 1011.3 - -
20/09:30pm 28.1 - - - - E 20 24 11 13 1011.3 - -
20/09:15pm 28.2 - - - - E 19 - 10 - - 1010.8 -
20/09:00pm 28.1 - - - - E 20 24 11 13 1011.0 - -
20/08:30pm 28.1 - - - - E 19 22 10 12 1010.8 - -
20/08:15pm 28.2 - - - - E 17 - 9 - - 1010.4 -
20/08:00pm 28.0 - - - - E 19 22 10 12 1010.6 - -
20/07:30pm 28.1 - - - - E 20 24 11 13 1010.1 - -
20/07:15pm 28.1 - - - - E 20 - 11 - - 1009.7 -
20/07:00pm 28.1 - - - - E 19 22 10 12 1010.0 - -
20/06:30pm 28.1 - - - - E 19 22 10 12 1009.8 - -
20/06:15pm 28.1 - - - - E 20 - 11 - - 1009.4 -
20/06:00pm 28.2 - - - - ESE 17 22 9 12 1009.7 - -
20/05:30pm 28.2 - - - - ESE 17 20 9 11 1009.3 - -
20/05:15pm 28.3 - - - - ESE 15 - 8 - - 1008.9 -
20/05:00pm 28.2 - - - - ESE 17 22 9 12 1009.1 - -
20/04:30pm 28.2 - - - - ESE 17 20 9 11 1009.0 - -
20/04:15pm 28.3 - - - - ESE 17 - 9 - - 1008.7 -
20/04:00pm 28.2 - - - - ESE 15 20 8 11 1009.1 - -
20/03:30pm 28.3 - - - - ESE 15 17 8 9 1009.1 - -
20/03:15pm 28.3 - - - - ESE 15 - 8 - - 1008.8 -
20/03:00pm 28.2 - - - - ESE 17 20 9 11 1009.2 - -
20/02:30pm 28.2 - - - - ESE 15 20 8 11 1009.3 - -
20/02:15pm 28.2 - - - - SE 17 - 9 - - 1009.1 -
20/02:00pm 28.3 - - - - SE 15 19 8 10 1009.6 - -
20/01:30pm 28.2 - - - - SE 15 19 8 10 1009.8 - -
20/01:15pm 28.2 - - - - SE 13 - 7 - - 1009.7 -
20/01:00pm 28.4 - - - - SE 15 19 8 10 1010.2 - -
20/12:30pm 28.3 - - - - SE 15 20 8 11 1010.5 - -
20/12:15pm 28.3 - - - - ESE 13 - 7 - - 1010.3 -
20/12:00pm 28.3 - - - - ESE 13 17 7 9 1010.8 - -
20/11:30am 28.4 - - - - E 13 15 7 8 1011.1 - -
20/11:15am 28.4 - - - - E 11 - 6 - - 1011.0 -
20/11:00am 28.4 - - - - E 13 15 7 8 1011.6 - -
20/10:30am 28.4 - - - - E 11 13 6 7 1011.6 - -
20/10:15am 28.4 - - - - E 13 - 7 - - 1011.4 -
20/10:00am 28.4 - - - - ENE 13 17 7 9 1011.7 - -
20/09:30am 28.6 - - - - ESE 15 19 8 10 1011.8 - -
20/09:15am 28.5 - - - - ESE 15 - 8 - - 1011.4 -
20/09:00am 28.6 - - - - ESE 15 17 8 9 1011.7 - -
20/08:30am 28.6 - - - - ESE 13 15 7 8 1011.7 - -
20/08:15am 28.6 - - - - E 11 - 6 - - 1011.2 -
20/08:00am 28.5 - - - - E 11 13 6 7 1011.5 - -
20/07:30am 28.3 - - - - E 15 17 8 9 1011.4 - -
20/07:15am 28.1 - - - - E 19 - 10 - - 1010.9 -
20/07:00am 27.9 - - - - E 17 20 9 11 1011.0 - -
20/06:30am 27.6 - - - - E 13 17 7 9 1010.9 - -
20/06:15am 27.6 - - - - E 13 - 7 - - 1010.5 -
20/06:00am 27.6 - - - - ESE 13 15 7 8 1010.6 - -
20/05:30am 27.5 - - - - E 13 17 7 9 1010.1 - -
20/05:15am 27.4 - - - - E 7 - 4 - - 1009.6 -
20/05:00am 27.4 - - - - ENE 11 15 6 8 1009.8 - -
20/04:30am 27.4 - - - - ENE 15 17 8 9 1009.5 - -
20/04:15am 27.4 - - - - ENE 15 - 8 - - 1009.2 -
20/04:00am 27.5 - - - - ENE 17 20 9 11 1009.4 - -
20/03:30am 27.5 - - - - ENE 17 20 9 11 1009.7 - -
20/03:15am 27.4 - - - - E 17 - 9 - - 1009.5 -
20/03:00am 27.4 - - - - E 15 19 8 10 1009.9 - -
20/02:30am 27.4 - - - - E 17 19 9 10 1010.2 - -
20/02:15am 27.4 - - - - E 17 - 9 - - 1009.9 -
20/02:00am 27.4 - - - - E 19 22 10 12 1010.1 - -
20/01:30am 27.4 - - - - E 19 20 10 11 1010.3 - -
20/01:15am 27.5 - - - - E 15 - 8 - - 1010.1 -
20/01:00am 27.5 - - - - E 19 20 10 11 1010.4 - -
20/12:30am 27.5 - - - - E 17 20 9 11 1010.7 - -
20/12:15am 27.6 - - - - E 19 - 10 - - 1010.6 -

Other Formats:

Comma delimited format used in spreadsheet applications
http://www.bom.gov.au/fwo/IDQ60801/IDQ60801.94289.axf

JavaScript Object Notation format (JSON) in row-major order
http://www.bom.gov.au/fwo/IDQ60801/IDQ60801.94289.json